sensor_id;sensor_type;location;lat;lon;timestamp;P1;durP1;ratioP1;P2;durP2;ratioP2
14778;SDS011;7481;53.750;10.570;2022-11-15T00:00:07;37.47;;;23.43;;
14778;SDS011;7481;53.750;10.570;2022-11-15T00:02:54;41.57;;;24.83;;
14778;SDS011;7481;53.750;10.570;2022-11-15T00:05:44;41.20;;;23.33;;
14778;SDS011;7481;53.750;10.570;2022-11-15T00:08:33;42.13;;;24.57;;
14778;SDS011;7481;53.750;10.570;2022-11-15T00:11:22;42.10;;;25.77;;
14778;SDS011;7481;53.750;10.570;2022-11-15T00:14:09;44.63;;;25.47;;
14778;SDS011;7481;53.750;10.570;2022-11-15T00:16:58;43.90;;;26.63;;
14778;SDS011;7481;53.750;10.570;2022-11-15T00:19:47;39.70;;;24.77;;
14778;SDS011;7481;53.750;10.570;2022-11-15T00:22:34;40.80;;;24.70;;
14778;SDS011;7481;53.750;10.570;2022-11-15T00:25:20;40.47;;;24.37;;
14778;SDS011;7481;53.750;10.570;2022-11-15T00:28:08;41.57;;;25.40;;
14778;SDS011;7481;53.750;10.570;2022-11-15T00:31:02;44.40;;;26.30;;
14778;SDS011;7481;53.750;10.570;2022-11-15T00:33:55;43.10;;;24.17;;
14778;SDS011;7481;53.750;10.570;2022-11-15T00:36:42;38.90;;;22.20;;
14778;SDS011;7481;53.750;10.570;2022-11-15T00:39:29;39.70;;;22.90;;
14778;SDS011;7481;53.750;10.570;2022-11-15T00:42:16;38.73;;;23.40;;
14778;SDS011;7481;53.750;10.570;2022-11-15T00:45:03;35.70;;;22.10;;
14778;SDS011;7481;53.750;10.570;2022-11-15T00:47:50;39.10;;;23.60;;
14778;SDS011;7481;53.750;10.570;2022-11-15T00:50:38;41.50;;;24.60;;
14778;SDS011;7481;53.750;10.570;2022-11-15T00:53:25;39.47;;;24.17;;
14778;SDS011;7481;53.750;10.570;2022-11-15T00:56:13;39.53;;;22.90;;
14778;SDS011;7481;53.750;10.570;2022-11-15T00:59:00;43.57;;;25.00;;
14778;SDS011;7481;53.750;10.570;2022-11-15T01:01:46;40.70;;;23.43;;
14778;SDS011;7481;53.750;10.570;2022-11-15T01:04:33;42.10;;;24.73;;
14778;SDS011;7481;53.750;10.570;2022-11-15T01:07:20;43.13;;;24.37;;
14778;SDS011;7481;53.750;10.570;2022-11-15T01:10:08;43.43;;;25.70;;
14778;SDS011;7481;53.750;10.570;2022-11-15T01:12:56;41.30;;;24.93;;
14778;SDS011;7481;53.750;10.570;2022-11-15T01:15:44;39.13;;;23.70;;
14778;SDS011;7481;53.750;10.570;2022-11-15T01:18:31;38.77;;;23.93;;
14778;SDS011;7481;53.750;10.570;2022-11-15T01:21:18;39.50;;;23.93;;
14778;SDS011;7481;53.750;10.570;2022-11-15T01:24:06;40.77;;;24.20;;
14778;SDS011;7481;53.750;10.570;2022-11-15T01:26:54;39.03;;;23.90;;
14778;SDS011;7481;53.750;10.570;2022-11-15T01:29:40;39.07;;;22.97;;
14778;SDS011;7481;53.750;10.570;2022-11-15T01:32:27;36.13;;;21.90;;
14778;SDS011;7481;53.750;10.570;2022-11-15T01:35:14;35.70;;;23.20;;
14778;SDS011;7481;53.750;10.570;2022-11-15T01:38:01;37.47;;;22.03;;
14778;SDS011;7481;53.750;10.570;2022-11-15T01:40:49;36.63;;;23.17;;
14778;SDS011;7481;53.750;10.570;2022-11-15T01:43:36;39.03;;;22.40;;
14778;SDS011;7481;53.750;10.570;2022-11-15T01:46:35;33.90;;;21.23;;
14778;SDS011;7481;53.750;10.570;2022-11-15T01:49:23;32.27;;;21.03;;
14778;SDS011;7481;53.750;10.570;2022-11-15T01:52:13;32.63;;;21.77;;
14778;SDS011;7481;53.750;10.570;2022-11-15T01:55:07;29.80;;;19.63;;
14778;SDS011;7481;53.750;10.570;2022-11-15T01:57:57;33.40;;;20.07;;
14778;SDS011;7481;53.750;10.570;2022-11-15T02:00:46;31.70;;;19.73;;
14778;SDS011;7481;53.750;10.570;2022-11-15T02:03:36;28.77;;;18.00;;
14778;SDS011;7481;53.750;10.570;2022-11-15T02:06:27;30.13;;;19.43;;
14778;SDS011;7481;53.750;10.570;2022-11-15T02:09:16;31.73;;;19.53;;
14778;SDS011;7481;53.750;10.570;2022-11-15T02:12:05;32.00;;;19.60;;
14778;SDS011;7481;53.750;10.570;2022-11-15T02:14:54;31.77;;;19.70;;
14778;SDS011;7481;53.750;10.570;2022-11-15T02:18:03;30.13;;;20.13;;
14778;SDS011;7481;53.750;10.570;2022-11-15T02:21:03;34.00;;;20.50;;
14778;SDS011;7481;53.750;10.570;2022-11-15T02:29:51;30.33;;;19.30;;
14778;SDS011;7481;53.750;10.570;2022-11-15T02:32:50;32.17;;;19.77;;
14778;SDS011;7481;53.750;10.570;2022-11-15T02:35:52;32.03;;;19.77;;
14778;SDS011;7481;53.750;10.570;2022-11-15T02:38:51;27.23;;;18.83;;
14778;SDS011;7481;53.750;10.570;2022-11-15T02:41:52;28.77;;;19.00;;
14778;SDS011;7481;53.750;10.570;2022-11-15T02:44:43;27.07;;;17.97;;
14778;SDS011;7481;53.750;10.570;2022-11-15T02:47:31;30.93;;;18.17;;
14778;SDS011;7481;53.750;10.570;2022-11-15T02:50:21;30.63;;;19.13;;
14778;SDS011;7481;53.750;10.570;2022-11-15T02:53:10;30.63;;;19.83;;
14778;SDS011;7481;53.750;10.570;2022-11-15T02:55:57;28.43;;;17.80;;
14778;SDS011;7481;53.750;10.570;2022-11-15T02:59:04;31.50;;;19.47;;
14778;SDS011;7481;53.750;10.570;2022-11-15T03:02:13;26.30;;;17.30;;
14778;SDS011;7481;53.750;10.570;2022-11-15T03:05:19;28.43;;;18.40;;
14778;SDS011;7481;53.750;10.570;2022-11-15T03:08:10;29.17;;;18.90;;
14778;SDS011;7481;53.750;10.570;2022-11-15T03:11:13;28.80;;;18.27;;
14778;SDS011;7481;53.750;10.570;2022-11-15T03:19:40;25.73;;;17.83;;
14778;SDS011;7481;53.750;10.570;2022-11-15T03:22:30;27.00;;;17.13;;
14778;SDS011;7481;53.750;10.570;2022-11-15T03:25:20;28.60;;;17.73;;
14778;SDS011;7481;53.750;10.570;2022-11-15T03:28:10;28.03;;;18.00;;
14778;SDS011;7481;53.750;10.570;2022-11-15T03:30:59;27.83;;;17.90;;
14778;SDS011;7481;53.750;10.570;2022-11-15T03:34:09;27.37;;;17.60;;
14778;SDS011;7481;53.750;10.570;2022-11-15T03:36:59;27.80;;;17.90;;
14778;SDS011;7481;53.750;10.570;2022-11-15T03:39:47;26.27;;;17.43;;
14778;SDS011;7481;53.750;10.570;2022-11-15T03:42:38;25.53;;;17.43;;
14778;SDS011;7481;53.750;10.570;2022-11-15T03:45:31;28.87;;;17.87;;
14778;SDS011;7481;53.750;10.570;2022-11-15T03:48:23;30.80;;;17.67;;
14778;SDS011;7481;53.750;10.570;2022-11-15T03:51:11;26.30;;;16.53;;
14778;SDS011;7481;53.750;10.570;2022-11-15T03:53:59;26.30;;;17.17;;
14778;SDS011;7481;53.750;10.570;2022-11-15T03:56:47;25.80;;;16.67;;
14778;SDS011;7481;53.750;10.570;2022-11-15T03:59:34;29.00;;;17.63;;
14778;SDS011;7481;53.750;10.570;2022-11-15T04:02:22;26.67;;;17.27;;
14778;SDS011;7481;53.750;10.570;2022-11-15T04:05:09;25.47;;;17.23;;
14778;SDS011;7481;53.750;10.570;2022-11-15T04:07:56;25.43;;;17.37;;
14778;SDS011;7481;53.750;10.570;2022-11-15T04:10:44;24.33;;;16.50;;
14778;SDS011;7481;53.750;10.570;2022-11-15T04:13:32;29.13;;;18.47;;
14778;SDS011;7481;53.750;10.570;2022-11-15T04:16:19;31.33;;;17.80;;
14778;SDS011;7481;53.750;10.570;2022-11-15T04:19:07;28.13;;;17.63;;
14778;SDS011;7481;53.750;10.570;2022-11-15T04:22:13;27.20;;;17.10;;
14778;SDS011;7481;53.750;10.570;2022-11-15T04:25:19;28.43;;;18.17;;
14778;SDS011;7481;53.750;10.570;2022-11-15T04:28:11;35.07;;;21.07;;
14778;SDS011;7481;53.750;10.570;2022-11-15T04:30:58;38.23;;;20.50;;
14778;SDS011;7481;53.750;10.570;2022-11-15T04:33:45;41.27;;;21.50;;
14778;SDS011;7481;53.750;10.570;2022-11-15T04:36:33;33.10;;;20.07;;
14778;SDS011;7481;53.750;10.570;2022-11-15T04:39:39;31.13;;;19.27;;
14778;SDS011;7481;53.750;10.570;2022-11-15T04:42:27;29.13;;;18.40;;
14778;SDS011;7481;53.750;10.570;2022-11-15T04:45:14;28.30;;;18.27;;
14778;SDS011;7481;53.750;10.570;2022-11-15T04:48:02;31.23;;;18.03;;
14778;SDS011;7481;53.750;10.570;2022-11-15T04:50:49;29.47;;;18.63;;
14778;SDS011;7481;53.750;10.570;2022-11-15T04:53:37;29.87;;;18.43;;
14778;SDS011;7481;53.750;10.570;2022-11-15T04:56:24;28.40;;;17.70;;
14778;SDS011;7481;53.750;10.570;2022-11-15T04:59:11;30.77;;;18.17;;
14778;SDS011;7481;53.750;10.570;2022-11-15T05:01:59;31.20;;;19.07;;
14778;SDS011;7481;53.750;10.570;2022-11-15T05:04:47;33.17;;;19.63;;
14778;SDS011;7481;53.750;10.570;2022-11-15T05:07:34;28.60;;;18.83;;
14778;SDS011;7481;53.750;10.570;2022-11-15T05:10:22;23.67;;;16.27;;
14778;SDS011;7481;53.750;10.570;2022-11-15T05:13:09;32.60;;;20.20;;
14778;SDS011;7481;53.750;10.570;2022-11-15T05:15:58;31.20;;;18.77;;
14778;SDS011;7481;53.750;10.570;2022-11-15T05:18:45;27.80;;;18.80;;
14778;SDS011;7481;53.750;10.570;2022-11-15T05:21:33;26.40;;;17.57;;
14778;SDS011;7481;53.750;10.570;2022-11-15T05:24:21;29.07;;;18.30;;
14778;SDS011;7481;53.750;10.570;2022-11-15T05:27:08;28.77;;;18.60;;
14778;SDS011;7481;53.750;10.570;2022-11-15T05:29:55;27.67;;;18.33;;
14778;SDS011;7481;53.750;10.570;2022-11-15T05:32:43;28.50;;;18.37;;
14778;SDS011;7481;53.750;10.570;2022-11-15T05:35:32;31.67;;;19.33;;
14778;SDS011;7481;53.750;10.570;2022-11-15T05:38:21;29.73;;;18.20;;
14778;SDS011;7481;53.750;10.570;2022-11-15T05:41:09;31.20;;;19.03;;
14778;SDS011;7481;53.750;10.570;2022-11-15T05:43:56;32.97;;;19.53;;
14778;SDS011;7481;53.750;10.570;2022-11-15T05:46:44;33.43;;;19.33;;
14778;SDS011;7481;53.750;10.570;2022-11-15T05:49:33;31.77;;;19.23;;
14778;SDS011;7481;53.750;10.570;2022-11-15T05:52:22;32.73;;;19.10;;
14778;SDS011;7481;53.750;10.570;2022-11-15T05:55:11;32.43;;;19.70;;
14778;SDS011;7481;53.750;10.570;2022-11-15T05:58:00;31.53;;;18.93;;
14778;SDS011;7481;53.750;10.570;2022-11-15T06:00:47;31.53;;;18.57;;
14778;SDS011;7481;53.750;10.570;2022-11-15T06:03:35;31.87;;;19.50;;
14778;SDS011;7481;53.750;10.570;2022-11-15T06:06:22;32.50;;;19.80;;
14778;SDS011;7481;53.750;10.570;2022-11-15T06:09:10;32.53;;;20.00;;
14778;SDS011;7481;53.750;10.570;2022-11-15T06:11:57;31.00;;;19.90;;
14778;SDS011;7481;53.750;10.570;2022-11-15T06:14:44;30.33;;;19.17;;
14778;SDS011;7481;53.750;10.570;2022-11-15T06:17:32;32.30;;;19.87;;
14778;SDS011;7481;53.750;10.570;2022-11-15T06:20:19;33.20;;;20.03;;
14778;SDS011;7481;53.750;10.570;2022-11-15T06:23:06;30.47;;;19.60;;
14778;SDS011;7481;53.750;10.570;2022-11-15T06:25:57;28.83;;;18.97;;
14778;SDS011;7481;53.750;10.570;2022-11-15T06:28:44;34.37;;;19.83;;
14778;SDS011;7481;53.750;10.570;2022-11-15T06:31:32;34.63;;;20.13;;
14778;SDS011;7481;53.750;10.570;2022-11-15T06:34:20;32.33;;;19.73;;
14778;SDS011;7481;53.750;10.570;2022-11-15T06:37:07;31.73;;;20.63;;
14778;SDS011;7481;53.750;10.570;2022-11-15T06:39:54;33.57;;;19.40;;
14778;SDS011;7481;53.750;10.570;2022-11-15T06:42:42;34.93;;;20.37;;
14778;SDS011;7481;53.750;10.570;2022-11-15T06:45:29;32.47;;;19.70;;
14778;SDS011;7481;53.750;10.570;2022-11-15T06:48:17;31.90;;;19.67;;
14778;SDS011;7481;53.750;10.570;2022-11-15T06:51:04;36.70;;;20.83;;
14778;SDS011;7481;53.750;10.570;2022-11-15T06:53:52;34.23;;;20.13;;
14778;SDS011;7481;53.750;10.570;2022-11-15T06:56:39;33.60;;;20.77;;
14778;SDS011;7481;53.750;10.570;2022-11-15T06:59:27;30.83;;;20.03;;
14778;SDS011;7481;53.750;10.570;2022-11-15T07:02:14;29.30;;;19.77;;
14778;SDS011;7481;53.750;10.570;2022-11-15T07:05:01;31.77;;;19.70;;
14778;SDS011;7481;53.750;10.570;2022-11-15T07:07:55;33.90;;;20.07;;
14778;SDS011;7481;53.750;10.570;2022-11-15T07:10:43;34.70;;;20.47;;
14778;SDS011;7481;53.750;10.570;2022-11-15T07:13:31;34.00;;;20.77;;
14778;SDS011;7481;53.750;10.570;2022-11-15T07:16:22;28.73;;;18.87;;
14778;SDS011;7481;53.750;10.570;2022-11-15T07:19:09;31.83;;;19.57;;
14778;SDS011;7481;53.750;10.570;2022-11-15T07:21:57;32.60;;;20.13;;
14778;SDS011;7481;53.750;10.570;2022-11-15T07:24:44;30.90;;;20.43;;
14778;SDS011;7481;53.750;10.570;2022-11-15T07:27:31;34.20;;;19.70;;
14778;SDS011;7481;53.750;10.570;2022-11-15T07:30:19;31.77;;;19.17;;
14778;SDS011;7481;53.750;10.570;2022-11-15T07:33:06;29.23;;;19.17;;
14778;SDS011;7481;53.750;10.570;2022-11-15T07:35:53;28.97;;;19.20;;
14778;SDS011;7481;53.750;10.570;2022-11-15T07:38:41;29.27;;;19.63;;
14778;SDS011;7481;53.750;10.570;2022-11-15T07:41:28;31.00;;;18.77;;
14778;SDS011;7481;53.750;10.570;2022-11-15T07:44:16;28.43;;;18.67;;
14778;SDS011;7481;53.750;10.570;2022-11-15T07:47:03;30.73;;;19.33;;
14778;SDS011;7481;53.750;10.570;2022-11-15T07:49:51;31.83;;;19.43;;
14778;SDS011;7481;53.750;10.570;2022-11-15T07:52:38;30.60;;;18.70;;
14778;SDS011;7481;53.750;10.570;2022-11-15T07:55:26;27.50;;;18.50;;
14778;SDS011;7481;53.750;10.570;2022-11-15T07:58:15;32.77;;;19.17;;
14778;SDS011;7481;53.750;10.570;2022-11-15T08:01:07;30.13;;;19.63;;
14778;SDS011;7481;53.750;10.570;2022-11-15T08:03:55;32.60;;;18.93;;
14778;SDS011;7481;53.750;10.570;2022-11-15T08:06:42;26.13;;;17.40;;
14778;SDS011;7481;53.750;10.570;2022-11-15T08:09:30;26.40;;;18.43;;
14778;SDS011;7481;53.750;10.570;2022-11-15T08:12:17;28.23;;;18.50;;
14778;SDS011;7481;53.750;10.570;2022-11-15T08:15:05;27.43;;;18.73;;
14778;SDS011;7481;53.750;10.570;2022-11-15T08:17:53;28.77;;;18.07;;
14778;SDS011;7481;53.750;10.570;2022-11-15T08:20:41;27.87;;;18.50;;
14778;SDS011;7481;53.750;10.570;2022-11-15T08:23:28;29.40;;;18.23;;
14778;SDS011;7481;53.750;10.570;2022-11-15T08:26:16;28.47;;;18.00;;
14778;SDS011;7481;53.750;10.570;2022-11-15T08:29:04;28.93;;;18.80;;
14778;SDS011;7481;53.750;10.570;2022-11-15T08:31:53;24.27;;;17.53;;
14778;SDS011;7481;53.750;10.570;2022-11-15T08:34:41;26.27;;;16.73;;
14778;SDS011;7481;53.750;10.570;2022-11-15T08:37:28;26.00;;;17.40;;
14778;SDS011;7481;53.750;10.570;2022-11-15T08:40:16;24.23;;;16.13;;
14778;SDS011;7481;53.750;10.570;2022-11-15T08:43:05;24.97;;;16.77;;
14778;SDS011;7481;53.750;10.570;2022-11-15T08:45:55;25.37;;;16.90;;
14778;SDS011;7481;53.750;10.570;2022-11-15T08:48:42;28.47;;;16.83;;
14778;SDS011;7481;53.750;10.570;2022-11-15T08:51:30;25.90;;;15.83;;
14778;SDS011;7481;53.750;10.570;2022-11-15T08:54:17;26.30;;;16.60;;
14778;SDS011;7481;53.750;10.570;2022-11-15T08:57:04;22.70;;;15.00;;
14778;SDS011;7481;53.750;10.570;2022-11-15T08:59:52;23.57;;;15.23;;
14778;SDS011;7481;53.750;10.570;2022-11-15T09:02:39;24.50;;;16.10;;
14778;SDS011;7481;53.750;10.570;2022-11-15T09:05:27;26.57;;;16.70;;
14778;SDS011;7481;53.750;10.570;2022-11-15T09:08:14;37.13;;;18.47;;
14778;SDS011;7481;53.750;10.570;2022-11-15T09:11:22;33.87;;;16.80;;
14778;SDS011;7481;53.750;10.570;2022-11-15T09:14:13;34.27;;;17.60;;
14778;SDS011;7481;53.750;10.570;2022-11-15T09:17:00;30.67;;;17.53;;
14778;SDS011;7481;53.750;10.570;2022-11-15T09:19:48;29.23;;;16.43;;
14778;SDS011;7481;53.750;10.570;2022-11-15T09:22:35;39.83;;;16.73;;
14778;SDS011;7481;53.750;10.570;2022-11-15T09:25:25;26.17;;;17.47;;
14778;SDS011;7481;53.750;10.570;2022-11-15T09:28:12;31.90;;;17.90;;
14778;SDS011;7481;53.750;10.570;2022-11-15T09:31:00;24.67;;;16.03;;
14778;SDS011;7481;53.750;10.570;2022-11-15T09:33:48;30.50;;;16.90;;
14778;SDS011;7481;53.750;10.570;2022-11-15T09:36:35;34.63;;;17.13;;
14778;SDS011;7481;53.750;10.570;2022-11-15T09:39:23;29.83;;;16.80;;
14778;SDS011;7481;53.750;10.570;2022-11-15T09:50:39;22.50;;;15.17;;
14778;SDS011;7481;53.750;10.570;2022-11-15T09:53:32;21.93;;;14.97;;
14778;SDS011;7481;53.750;10.570;2022-11-15T09:56:42;21.83;;;15.13;;
14778;SDS011;7481;53.750;10.570;2022-11-15T09:59:43;24.00;;;15.20;;
14778;SDS011;7481;53.750;10.570;2022-11-15T10:02:46;22.17;;;14.97;;
14778;SDS011;7481;53.750;10.570;2022-11-15T10:05:40;23.53;;;15.07;;
14778;SDS011;7481;53.750;10.570;2022-11-15T10:08:40;21.93;;;15.10;;
14778;SDS011;7481;53.750;10.570;2022-11-15T10:11:32;22.03;;;14.00;;
14778;SDS011;7481;53.750;10.570;2022-11-15T10:14:25;22.20;;;14.73;;
14778;SDS011;7481;53.750;10.570;2022-11-15T10:17:20;22.40;;;14.27;;
14778;SDS011;7481;53.750;10.570;2022-11-15T10:23:10;19.27;;;13.53;;
14778;SDS011;7481;53.750;10.570;2022-11-15T10:25:59;21.57;;;14.03;;
14778;SDS011;7481;53.750;10.570;2022-11-15T10:28:52;36.83;;;14.83;;
14778;SDS011;7481;53.750;10.570;2022-11-15T10:31:39;24.00;;;14.23;;
14778;SDS011;7481;53.750;10.570;2022-11-15T10:34:27;19.73;;;14.13;;
14778;SDS011;7481;53.750;10.570;2022-11-15T10:37:15;20.90;;;13.53;;
14778;SDS011;7481;53.750;10.570;2022-11-15T10:40:21;17.63;;;13.53;;
14778;SDS011;7481;53.750;10.570;2022-11-15T10:45:56;27.03;;;15.07;;
14778;SDS011;7481;53.750;10.570;2022-11-15T10:49:25;19.50;;;13.67;;
14778;SDS011;7481;53.750;10.570;2022-11-15T10:52:17;17.67;;;13.57;;
14778;SDS011;7481;53.750;10.570;2022-11-15T10:58:02;20.43;;;14.23;;
14778;SDS011;7481;53.750;10.570;2022-11-15T11:00:51;23.03;;;13.40;;
14778;SDS011;7481;53.750;10.570;2022-11-15T11:03:40;21.17;;;14.87;;
14778;SDS011;7481;53.750;10.570;2022-11-15T11:06:28;20.77;;;14.27;;
14778;SDS011;7481;53.750;10.570;2022-11-15T11:09:32;17.87;;;12.50;;
14778;SDS011;7481;53.750;10.570;2022-11-15T11:12:20;21.53;;;13.50;;
14778;SDS011;7481;53.750;10.570;2022-11-15T11:15:14;20.47;;;13.77;;
14778;SDS011;7481;53.750;10.570;2022-11-15T11:20:50;21.67;;;14.50;;
14778;SDS011;7481;53.750;10.570;2022-11-15T11:23:44;16.10;;;12.07;;
14778;SDS011;7481;53.750;10.570;2022-11-15T11:35:15;17.17;;;11.80;;
14778;SDS011;7481;53.750;10.570;2022-11-15T11:47:11;15.83;;;12.83;;
14778;SDS011;7481;53.750;10.570;2022-11-15T11:50:05;16.53;;;12.33;;
14778;SDS011;7481;53.750;10.570;2022-11-15T11:55:51;19.63;;;13.10;;
14778;SDS011;7481;53.750;10.570;2022-11-15T11:58:41;16.13;;;11.87;;
14778;SDS011;7481;53.750;10.570;2022-11-15T12:01:50;17.80;;;12.37;;
14778;SDS011;7481;53.750;10.570;2022-11-15T12:04:38;16.13;;;12.13;;
14778;SDS011;7481;53.750;10.570;2022-11-15T12:07:33;17.27;;;12.90;;
14778;SDS011;7481;53.750;10.570;2022-11-15T12:10:23;17.67;;;12.60;;
14778;SDS011;7481;53.750;10.570;2022-11-15T12:13:15;17.13;;;13.17;;
14778;SDS011;7481;53.750;10.570;2022-11-15T12:16:20;15.67;;;11.73;;
14778;SDS011;7481;53.750;10.570;2022-11-15T12:19:09;19.77;;;11.37;;
14778;SDS011;7481;53.750;10.570;2022-11-15T12:22:00;16.80;;;11.53;;
14778;SDS011;7481;53.750;10.570;2022-11-15T12:24:54;16.70;;;11.97;;
14778;SDS011;7481;53.750;10.570;2022-11-15T12:27:45;16.20;;;11.23;;
14778;SDS011;7481;53.750;10.570;2022-11-15T12:30:53;17.83;;;10.93;;
14778;SDS011;7481;53.750;10.570;2022-11-15T12:33:45;17.20;;;10.57;;
14778;SDS011;7481;53.750;10.570;2022-11-15T12:36:37;19.17;;;11.67;;
14778;SDS011;7481;53.750;10.570;2022-11-15T12:42:36;14.30;;;10.33;;
14778;SDS011;7481;53.750;10.570;2022-11-15T12:45:28;13.77;;;10.73;;
14778;SDS011;7481;53.750;10.570;2022-11-15T12:51:03;15.10;;;11.10;;
14778;SDS011;7481;53.750;10.570;2022-11-15T12:53:50;15.77;;;10.70;;
14778;SDS011;7481;53.750;10.570;2022-11-15T12:56:38;15.83;;;11.10;;
14778;SDS011;7481;53.750;10.570;2022-11-15T13:02:33;12.93;;;10.70;;
14778;SDS011;7481;53.750;10.570;2022-11-15T13:08:38;15.10;;;10.17;;
14778;SDS011;7481;53.750;10.570;2022-11-15T13:11:45;14.63;;;10.87;;
14778;SDS011;7481;53.750;10.570;2022-11-15T13:20:29;16.57;;;11.47;;
14778;SDS011;7481;53.750;10.570;2022-11-15T13:23:17;14.73;;;11.23;;
14778;SDS011;7481;53.750;10.570;2022-11-15T13:26:07;15.93;;;10.43;;
14778;SDS011;7481;53.750;10.570;2022-11-15T13:28:56;16.47;;;10.90;;
14778;SDS011;7481;53.750;10.570;2022-11-15T13:31:45;14.63;;;10.63;;
14778;SDS011;7481;53.750;10.570;2022-11-15T13:34:33;14.73;;;11.33;;
14778;SDS011;7481;53.750;10.570;2022-11-15T13:37:36;16.50;;;11.30;;
14778;SDS011;7481;53.750;10.570;2022-11-15T13:40:28;15.23;;;10.63;;
14778;SDS011;7481;53.750;10.570;2022-11-15T13:46:16;12.57;;;10.40;;
14778;SDS011;7481;53.750;10.570;2022-11-15T13:49:05;14.73;;;10.10;;
14778;SDS011;7481;53.750;10.570;2022-11-15T13:51:53;16.00;;;11.00;;
14778;SDS011;7481;53.750;10.570;2022-11-15T13:57:48;14.77;;;10.80;;
14778;SDS011;7481;53.750;10.570;2022-11-15T14:00:38;13.77;;;9.80;;
14778;SDS011;7481;53.750;10.570;2022-11-15T14:03:31;14.83;;;9.80;;
14778;SDS011;7481;53.750;10.570;2022-11-15T14:06:19;15.30;;;10.20;;
14778;SDS011;7481;53.750;10.570;2022-11-15T14:11:58;13.77;;;9.97;;
14778;SDS011;7481;53.750;10.570;2022-11-15T14:14:46;17.30;;;10.37;;
14778;SDS011;7481;53.750;10.570;2022-11-15T14:17:34;14.03;;;10.20;;
14778;SDS011;7481;53.750;10.570;2022-11-15T14:23:24;16.50;;;11.37;;
14778;SDS011;7481;53.750;10.570;2022-11-15T14:26:31;19.70;;;12.77;;
14778;SDS011;7481;53.750;10.570;2022-11-15T14:29:25;15.17;;;11.70;;
14778;SDS011;7481;53.750;10.570;2022-11-15T14:32:21;17.30;;;11.47;;
14778;SDS011;7481;53.750;10.570;2022-11-15T14:35:11;17.80;;;12.17;;
14778;SDS011;7481;53.750;10.570;2022-11-15T14:37:59;15.77;;;10.30;;
14778;SDS011;7481;53.750;10.570;2022-11-15T14:40:47;14.13;;;10.60;;
14778;SDS011;7481;53.750;10.570;2022-11-15T14:43:34;14.57;;;11.73;;
14778;SDS011;7481;53.750;10.570;2022-11-15T14:46:22;13.93;;;10.40;;
14778;SDS011;7481;53.750;10.570;2022-11-15T14:49:09;13.63;;;10.63;;
14778;SDS011;7481;53.750;10.570;2022-11-15T14:51:59;15.20;;;10.77;;
14778;SDS011;7481;53.750;10.570;2022-11-15T14:54:47;16.03;;;10.47;;
14778;SDS011;7481;53.750;10.570;2022-11-15T14:57:34;16.77;;;10.37;;
14778;SDS011;7481;53.750;10.570;2022-11-15T15:00:22;18.57;;;10.73;;
14778;SDS011;7481;53.750;10.570;2022-11-15T15:03:09;16.73;;;11.57;;
14778;SDS011;7481;53.750;10.570;2022-11-15T15:05:57;15.47;;;10.83;;
14778;SDS011;7481;53.750;10.570;2022-11-15T15:08:45;16.30;;;10.30;;
14778;SDS011;7481;53.750;10.570;2022-11-15T15:11:34;14.33;;;10.50;;
14778;SDS011;7481;53.750;10.570;2022-11-15T15:14:21;13.97;;;10.33;;
14778;SDS011;7481;53.750;10.570;2022-11-15T15:17:09;17.57;;;11.23;;
14778;SDS011;7481;53.750;10.570;2022-11-15T15:19:56;13.27;;;10.10;;
14778;SDS011;7481;53.750;10.570;2022-11-15T15:22:44;15.50;;;11.17;;
14778;SDS011;7481;53.750;10.570;2022-11-15T15:25:34;17.13;;;11.13;;
14778;SDS011;7481;53.750;10.570;2022-11-15T15:28:22;14.67;;;10.90;;
14778;SDS011;7481;53.750;10.570;2022-11-15T15:31:09;15.67;;;11.43;;
14778;SDS011;7481;53.750;10.570;2022-11-15T15:33:57;16.97;;;11.93;;
14778;SDS011;7481;53.750;10.570;2022-11-15T15:36:44;15.30;;;10.37;;
14778;SDS011;7481;53.750;10.570;2022-11-15T15:39:31;17.47;;;10.33;;
14778;SDS011;7481;53.750;10.570;2022-11-15T15:42:19;13.80;;;9.73;;
14778;SDS011;7481;53.750;10.570;2022-11-15T15:45:07;15.30;;;10.80;;
14778;SDS011;7481;53.750;10.570;2022-11-15T15:47:55;15.50;;;11.23;;
14778;SDS011;7481;53.750;10.570;2022-11-15T15:50:42;17.63;;;11.80;;
14778;SDS011;7481;53.750;10.570;2022-11-15T15:53:30;14.73;;;10.53;;
14778;SDS011;7481;53.750;10.570;2022-11-15T15:56:18;16.83;;;11.57;;
14778;SDS011;7481;53.750;10.570;2022-11-15T15:59:05;16.43;;;11.30;;
14778;SDS011;7481;53.750;10.570;2022-11-15T16:01:52;17.77;;;10.50;;
14778;SDS011;7481;53.750;10.570;2022-11-15T16:04:40;14.20;;;10.50;;
14778;SDS011;7481;53.750;10.570;2022-11-15T16:07:27;16.80;;;10.47;;
14778;SDS011;7481;53.750;10.570;2022-11-15T16:10:20;12.53;;;10.37;;
14778;SDS011;7481;53.750;10.570;2022-11-15T16:13:08;15.30;;;11.23;;
14778;SDS011;7481;53.750;10.570;2022-11-15T16:15:55;13.10;;;9.43;;
14778;SDS011;7481;53.750;10.570;2022-11-15T16:18:42;13.77;;;10.17;;
14778;SDS011;7481;53.750;10.570;2022-11-15T16:21:30;14.00;;;9.87;;
14778;SDS011;7481;53.750;10.570;2022-11-15T16:24:18;12.63;;;10.20;;
14778;SDS011;7481;53.750;10.570;2022-11-15T16:27:05;18.83;;;13.20;;
14778;SDS011;7481;53.750;10.570;2022-11-15T16:29:57;17.50;;;13.83;;
14778;SDS011;7481;53.750;10.570;2022-11-15T16:32:44;15.87;;;12.40;;
14778;SDS011;7481;53.750;10.570;2022-11-15T16:35:31;17.40;;;13.33;;
14778;SDS011;7481;53.750;10.570;2022-11-15T16:38:21;14.47;;;11.73;;
14778;SDS011;7481;53.750;10.570;2022-11-15T16:41:08;15.40;;;11.53;;
14778;SDS011;7481;53.750;10.570;2022-11-15T16:43:58;18.07;;;12.00;;
14778;SDS011;7481;53.750;10.570;2022-11-15T16:46:45;16.23;;;12.43;;
14778;SDS011;7481;53.750;10.570;2022-11-15T16:49:37;14.83;;;11.00;;
14778;SDS011;7481;53.750;10.570;2022-11-15T16:52:25;17.27;;;12.57;;
14778;SDS011;7481;53.750;10.570;2022-11-15T16:55:12;22.67;;;15.03;;
14778;SDS011;7481;53.750;10.570;2022-11-15T16:58:00;28.03;;;19.27;;
14778;SDS011;7481;53.750;10.570;2022-11-15T17:00:51;19.63;;;13.63;;
14778;SDS011;7481;53.750;10.570;2022-11-15T17:03:39;21.07;;;15.30;;
14778;SDS011;7481;53.750;10.570;2022-11-15T17:06:26;21.93;;;14.30;;
14778;SDS011;7481;53.750;10.570;2022-11-15T17:09:14;16.93;;;11.13;;
14778;SDS011;7481;53.750;10.570;2022-11-15T17:12:06;12.73;;;10.43;;
14778;SDS011;7481;53.750;10.570;2022-11-15T17:14:54;16.50;;;11.37;;
14778;SDS011;7481;53.750;10.570;2022-11-15T17:17:41;17.63;;;11.53;;
14778;SDS011;7481;53.750;10.570;2022-11-15T17:20:28;16.47;;;12.43;;
14778;SDS011;7481;53.750;10.570;2022-11-15T17:23:16;17.37;;;12.60;;
14778;SDS011;7481;53.750;10.570;2022-11-15T17:26:03;14.67;;;11.27;;
14778;SDS011;7481;53.750;10.570;2022-11-15T17:29:11;20.43;;;12.47;;
14778;SDS011;7481;53.750;10.570;2022-11-15T17:31:58;15.17;;;11.67;;
14778;SDS011;7481;53.750;10.570;2022-11-15T17:34:45;12.63;;;10.37;;
14778;SDS011;7481;53.750;10.570;2022-11-15T17:37:35;17.93;;;12.23;;
14778;SDS011;7481;53.750;10.570;2022-11-15T17:40:25;14.70;;;11.30;;
14778;SDS011;7481;53.750;10.570;2022-11-15T17:43:15;19.83;;;12.53;;
14778;SDS011;7481;53.750;10.570;2022-11-15T17:46:11;16.83;;;11.87;;
14778;SDS011;7481;53.750;10.570;2022-11-15T17:48:58;17.27;;;11.93;;
14778;SDS011;7481;53.750;10.570;2022-11-15T17:51:45;16.47;;;11.37;;
14778;SDS011;7481;53.750;10.570;2022-11-15T17:54:35;16.00;;;12.13;;